Murdock, Minnesota
Current Conditions -  °F | °C
As of 1:55 AM on Friday 19 Dec 2014 (Local Time) from KBDH Reporting Station
Overcast Overcast  
Wind Chill: 17°   Ceiling: 1400
Heat Index: 25°   Visibility: 7mi
Dew Point: 19°   Wind: 7mph
Humidity: 80%   Direction: 140°SE
Pressure: 30.22"   Gusts: NA
Location:  45.22°N, 95.39°W
Report Text: KBDH 190755Z AUTO 14006KT 7SM OVC014 M04/M07 A3022 RMK AO2
Loading
Personal Weather Stations






























Interactive Weather Map New forecast layout! Learn more

10-Day Weather Forecast

Advertisements
Track Severe Weather on mobile